Time;durP1;ratioP1;P1;durP2;ratioP2;P2;SDS_P1;SDS_P2;PMS_P1;PMS_P2;Temp;Humidity;BMP_temperature;BMP_pressure;BME280_temperature;BME280_humidity;BME280_pressure;Samples;Min_cycle;Max_cycle;Signal;HPM_P1;HPM_P2
2024/02/26 00:00:08;;;;;;;1.40;1.20;;;5.60;92.50;;;;;;2051503;28;20665;-73
2024/02/26 00:01:09;;;;;;;1.50;1.00;;;5.50;91.70;;;;;;2053499;28;20845;-73
2024/02/26 00:02:10;;;;;;;1.30;1.00;;;5.40;91.40;;;;;;2053027;28;20194;-73
2024/02/26 00:03:10;;;;;;;1.70;1.13;;;5.30;90.90;;;;;;2048350;28;20192;-73
2024/02/26 00:04:12;;;;;;;2.20;1.40;;;5.30;92.50;;;;;;2051681;28;20734;-74
2024/02/26 00:05:13;;;;;;;1.50;1.27;;;5.30;93.20;;;;;;2045428;28;20261;-74
2024/02/26 00:06:13;;;;;;;1.50;1.10;;;5.20;93.50;;;;;;2046191;28;20227;-73
2024/02/26 00:07:14;;;;;;;1.20;1.10;;;5.20;94.00;;;;;;2057469;28;20223;-73
2024/02/26 00:08:15;;;;;;;2.23;1.30;;;5.20;93.40;;;;;;2055795;28;20826;-72
2024/02/26 00:09:15;;;;;;;1.80;1.10;;;5.20;93.40;;;;;;2053178;28;20284;-73
2024/02/26 00:10:16;;;;;;;1.57;0.90;;;5.10;92.00;;;;;;2047857;28;20231;-73
2024/02/26 00:11:17;;;;;;;0.80;0.70;;;5.00;85.80;;;;;;2051132;28;20640;-74
2024/02/26 00:12:17;;;;;;;1.10;0.70;;;5.00;82.60;;;;;;2058987;28;20249;-73
2024/02/26 00:13:20;;;;;;;1.40;0.83;;;5.10;84.20;;;;;;2052914;28;20231;-73
2024/02/26 00:14:20;;;;;;;1.23;0.70;;;5.20;81.80;;;;;;2047988;28;20733;-73
2024/02/26 00:15:21;;;;;;;1.77;1.20;;;5.30;85.30;;;;;;2045874;28;20227;-72
2024/02/26 00:16:22;;;;;;;1.10;1.00;;;5.30;87.20;;;;;;2054705;28;20234;-73
2024/02/26 00:17:22;;;;;;;1.00;0.90;;;5.30;86.90;;;;;;2069819;28;20288;-73
2024/02/26 00:18:23;;;;;;;1.10;0.83;;;5.30;88.10;;;;;;2054572;28;20723;-74
2024/02/26 00:19:24;;;;;;;1.20;0.90;;;5.40;90.00;;;;;;2043506;29;20231;-73
2024/02/26 00:20:24;;;;;;;1.60;0.83;;;5.30;90.70;;;;;;2042778;28;20232;-73
2024/02/26 00:21:25;;;;;;;1.07;0.90;;;5.30;90.70;;;;;;2050994;28;20239;-73
2024/02/26 00:22:26;;;;;;;1.10;0.93;;;5.20;90.60;;;;;;2055624;28;20659;-72
2024/02/26 00:23:27;;;;;;;0.70;0.70;;;5.20;90.80;;;;;;2056194;28;20288;-74
2024/02/26 00:24:28;;;;;;;1.20;1.10;;;5.20;90.90;;;;;;2053959;28;20232;-74
2024/02/26 00:25:28;;;;;;;0.70;0.70;;;5.30;91.30;;;;;;2039558;28;20232;-73
2024/02/26 00:26:29;;;;;;;1.30;0.90;;;5.30;91.30;;;;;;2048439;28;20226;-74
2024/02/26 00:27:30;;;;;;;1.33;0.90;;;5.30;91.70;;;;;;2056719;28;20234;-74
2024/02/26 00:28:31;;;;;;;2.30;1.13;;;5.40;92.80;;;;;;2050449;28;20745;-73
2024/02/26 00:29:32;;;;;;;1.00;0.90;;;5.40;92.60;;;;;;2045617;28;20233;-74
2024/02/26 00:30:33;;;;;;;0.98;0.80;;;5.30;92.00;;;;;;2052088;28;20310;-73
2024/02/26 00:31:33;;;;;;;0.93;0.93;;;5.20;91.70;;;;;;2056792;28;20235;-74
2024/02/26 00:32:34;;;;;;;1.50;1.00;;;5.20;91.70;;;;;;2058401;28;20233;-74
2024/02/26 00:33:34;;;;;;;1.33;0.90;;;5.20;92.10;;;;;;2045623;28;20693;-73
2024/02/26 00:34:35;;;;;;;2.07;1.20;;;5.30;92.20;;;;;;2050943;28;20631;-74
2024/02/26 00:35:36;;;;;;;0.70;0.63;;;5.30;92.60;;;;;;2060409;28;20284;-74
2024/02/26 00:36:36;;;;;;;1.10;0.93;;;5.40;92.70;;;;;;2044112;28;20246;-73
2024/02/26 00:37:37;;;;;;;1.20;1.00;;;5.40;93.10;;;;;;2054343;28;20244;-73
2024/02/26 00:38:39;;;;;;;1.70;1.47;;;5.40;93.10;;;;;;2051173;28;20723;-73
2024/02/26 00:39:40;;;;;;;1.42;0.77;;;5.40;92.90;;;;;;2060968;28;20250;-75
2024/02/26 00:40:41;;;;;;;1.00;0.73;;;5.40;92.70;;;;;;2062534;28;20317;-73
2024/02/26 00:41:42;;;;;;;0.70;0.70;;;5.50;94.20;;;;;;2054783;28;20284;-74
2024/02/26 00:42:45;;;;;;;1.43;1.03;;;5.50;93.60;;;;;;2038764;28;20232;-73
2024/02/26 00:43:47;;;;;;;2.17;1.00;;;5.50;93.30;;;;;;2055594;28;20253;-72
2024/02/26 00:44:47;;;;;;;1.20;1.10;;;5.50;93.30;;;;;;2039367;28;20235;-73
2024/02/26 00:45:48;;;;;;;1.27;0.70;;;5.50;93.80;;;;;;2046940;28;20230;-73
2024/02/26 00:46:49;;;;;;;0.70;0.60;;;5.50;93.70;;;;;;2046932;28;20255;-75
2024/02/26 00:47:50;;;;;;;3.87;0.90;;;5.40;94.10;;;;;;2046826;28;20275;-74
2024/02/26 00:48:50;;;;;;;1.60;0.90;;;5.40;94.40;;;;;;2047412;28;20307;-73
2024/02/26 00:49:51;;;;;;;0.93;0.83;;;5.40;94.70;;;;;;2049769;28;20708;-72
2024/02/26 00:50:52;;;;;;;0.77;0.77;;;5.50;94.50;;;;;;2058211;28;20244;-72
2024/02/26 00:51:52;;;;;;;1.70;0.87;;;5.40;94.40;;;;;;2049327;28;20189;-73
2024/02/26 00:52:53;;;;;;;2.43;0.80;;;5.40;94.20;;;;;;2052490;28;20218;-73
2024/02/26 00:53:54;;;;;;;0.87;0.80;;;5.40;94.30;;;;;;2051341;28;20187;-73
2024/02/26 00:54:55;;;;;;;2.10;1.00;;;5.40;94.30;;;;;;2054136;28;20325;-72
2024/02/26 00:55:56;;;;;;;1.00;0.80;;;5.30;94.90;;;;;;2048201;28;20187;-73
2024/02/26 00:56:56;;;;;;;1.13;0.80;;;5.30;95.30;;;;;;2051618;28;20649;-74
2024/02/26 00:57:57;;;;;;;0.90;0.90;;;5.30;95.30;;;;;;2051592;28;20198;-75
2024/02/26 00:58:58;;;;;;;2.07;0.90;;;5.30;95.10;;;;;;2065136;28;20179;-73
2024/02/26 01:00:00;;;;;;;1.25;1.00;;;5.30;95.10;;;;;;2051503;28;20192;-74
2024/02/26 01:01:01;;;;;;;2.83;0.90;;;5.40;94.80;;;;;;2041636;28;20184;-73
2024/02/26 01:02:02;;;;;;;1.60;0.70;;;5.40;94.40;;;;;;2051413;28;20234;-74
2024/02/26 01:03:04;;;;;;;1.13;0.80;;;5.40;94.70;;;;;;2048697;28;20179;-73
2024/02/26 01:04:05;;;;;;;1.05;0.88;;;5.30;94.90;;;;;;2061948;28;20187;-74
2024/02/26 01:05:06;;;;;;;1.63;1.17;;;5.40;95.10;;;;;;2055038;28;20194;-74
2024/02/26 01:06:07;;;;;;;1.20;0.90;;;5.30;95.00;;;;;;2046554;28;20172;-73
2024/02/26 01:07:08;;;;;;;1.33;0.87;;;5.40;94.70;;;;;;2049625;28;20184;-74
2024/02/26 01:08:09;;;;;;;1.88;0.90;;;5.30;94.70;;;;;;2050608;28;20194;-73
2024/02/26 01:09:10;;;;;;;1.00;0.80;;;5.40;94.50;;;;;;2034979;29;20276;-73
2024/02/26 01:10:10;;;;;;;1.67;0.90;;;5.30;94.40;;;;;;2038083;29;20706;-72
2024/02/26 01:11:11;;;;;;;1.33;0.80;;;5.30;94.50;;;;;;2051389;28;20260;-73
2024/02/26 01:12:12;;;;;;;1.03;0.70;;;5.30;94.10;;;;;;2054296;28;20698;-73
2024/02/26 01:13:13;;;;;;;1.27;0.98;;;5.30;94.10;;;;;;2051253;28;20235;-73
2024/02/26 01:14:14;;;;;;;0.63;0.60;;;5.30;93.20;;;;;;2044165;28;20286;-74
2024/02/26 01:15:15;;;;;;;1.00;1.00;;;5.20;92.30;;;;;;2049843;28;20235;-75
2024/02/26 01:16:15;;;;;;;1.23;0.80;;;5.30;91.90;;;;;;2055245;28;20392;-73
2024/02/26 01:17:16;;;;;;;1.23;0.83;;;5.40;91.60;;;;;;2046822;28;20231;-74
2024/02/26 01:18:17;;;;;;;0.60;0.57;;;5.40;92.10;;;;;;2041777;29;20725;-75
2024/02/26 01:19:18;;;;;;;1.30;0.90;;;5.30;92.40;;;;;;2047490;28;20278;-74
2024/02/26 01:20:20;;;;;;;0.90;0.80;;;5.30;92.40;;;;;;2051997;28;20226;-74
2024/02/26 01:21:21;;;;;;;1.08;0.80;;;5.30;92.80;;;;;;2053608;28;20227;-74
2024/02/26 01:22:22;;;;;;;0.97;0.87;;;5.20;93.00;;;;;;2053188;28;20234;-74
2024/02/26 01:23:22;;;;;;;1.50;0.98;;;5.20;93.70;;;;;;2054517;28;20245;-74
2024/02/26 01:24:23;;;;;;;0.70;0.70;;;5.10;94.10;;;;;;2049596;28;20225;-74
2024/02/26 01:25:24;;;;;;;1.17;0.87;;;5.20;94.80;;;;;;2050403;28;20680;-73
2024/02/26 01:26:24;;;;;;;0.70;0.70;;;5.20;94.70;;;;;;2055032;28;20230;-74
2024/02/26 01:27:27;;;;;;;1.17;0.77;;;5.30;94.60;;;;;;2057694;28;20266;-73
2024/02/26 01:28:27;;;;;;;0.93;0.77;;;5.30;94.40;;;;;;2058263;28;20333;-74
2024/02/26 01:29:28;;;;;;;1.20;1.10;;;5.30;94.50;;;;;;2050065;28;20267;-74
2024/02/26 01:30:29;;;;;;;1.33;0.90;;;5.30;94.40;;;;;;2042453;28;20694;-74
2024/02/26 01:31:29;;;;;;;3.43;0.60;;;5.40;95.30;;;;;;2047505;28;20263;-75
2024/02/26 01:32:30;;;;;;;2.33;1.00;;;5.30;94.90;;;;;;2045464;28;20275;-73
2024/02/26 01:33:31;;;;;;;0.77;0.75;;;5.30;95.80;;;;;;2041026;28;20276;-74
2024/02/26 01:34:32;;;;;;;1.23;0.80;;;5.10;97.60;;;;;;2046236;28;20286;-74
2024/02/26 01:35:32;;;;;;;0.70;0.70;;;4.90;96.60;;;;;;2052342;28;20247;-73
2024/02/26 01:36:34;;;;;;;0.60;0.60;;;4.80;96.20;;;;;;2050884;28;20273;-74
2024/02/26 01:37:35;;;;;;;0.73;0.52;;;4.80;95.80;;;;;;2058379;28;20648;-74
2024/02/26 01:38:35;;;;;;;1.00;0.70;;;4.80;95.80;;;;;;2048978;28;20256;-73
2024/02/26 01:39:36;;;;;;;1.73;0.70;;;4.80;96.10;;;;;;2043244;28;20318;-74
2024/02/26 01:40:37;;;;;;;1.00;0.70;;;4.80;97.00;;;;;;2039151;29;20318;-72
2024/02/26 01:41:40;;;;;;;2.00;0.77;;;4.60;99.40;;;;;;2044177;28;20263;-73
2024/02/26 01:42:41;;;;;;;1.15;0.60;;;4.50;98.30;;;;;;2046662;28;20231;-74
2024/02/26 01:43:42;;;;;;;1.13;0.50;;;4.40;99.30;;;;;;2046509;28;20224;-73
2024/02/26 01:44:43;;;;;;;0.57;0.57;;;4.40;99.10;;;;;;2049649;28;20736;-73
2024/02/26 01:45:44;;;;;;;0.60;0.57;;;4.40;99.90;;;;;;2046142;28;20227;-74
2024/02/26 01:46:44;;;;;;;0.73;0.70;;;4.40;99.90;;;;;;2044368;28;20280;-74
2024/02/26 01:47:45;;;;;;;0.60;0.60;;;4.50;99.90;;;;;;2057109;28;20234;-74
2024/02/26 01:48:47;;;;;;;0.60;0.60;;;4.50;99.90;;;;;;2051676;28;20654;-74
2024/02/26 01:49:48;;;;;;;0.80;0.57;;;4.50;99.90;;;;;;2050550;28;20322;-74
2024/02/26 01:50:49;;;;;;;0.70;0.70;;;4.50;99.90;;;;;;2049701;28;20241;-74
2024/02/26 01:51:50;;;;;;;0.63;0.60;;;4.50;99.90;;;;;;2054134;28;20564;-74
2024/02/26 01:52:52;;;;;;;1.73;0.63;;;4.40;99.90;;;;;;2054167;28;20237;-73
2024/02/26 01:53:53;;;;;;;0.70;0.70;;;4.30;99.90;;;;;;2053105;28;20230;-73
2024/02/26 01:54:54;;;;;;;0.68;0.68;;;4.30;99.90;;;;;;2049471;28;20658;-75
2024/02/26 01:55:55;;;;;;;1.03;0.70;;;4.30;99.90;;;;;;2043676;28;20188;-73
2024/02/26 01:56:56;;;;;;;0.63;0.63;;;4.30;99.90;;;;;;2051688;28;20192;-74
2024/02/26 01:57:57;;;;;;;0.90;0.90;;;4.40;99.90;;;;;;2045574;28;20211;-73
2024/02/26 01:58:58;;;;;;;0.70;0.70;;;4.30;99.90;;;;;;2053697;28;20179;-74
2024/02/26 01:59:59;;;;;;;0.70;0.70;;;4.30;99.90;;;;;;2057243;28;20179;-74
2024/02/26 02:01:02;;;;;;;1.10;0.67;;;4.30;99.90;;;;;;2057104;28;20274;-74
2024/02/26 02:02:08;;;;;;;0.60;0.60;;;4.30;99.90;;;;;;2047979;28;20183;-74
2024/02/26 02:03:09;;;;;;;0.75;0.75;;;4.30;99.90;;;;;;2037463;28;20184;-74
2024/02/26 02:04:10;;;;;;;1.57;0.70;;;4.40;99.90;;;;;;2039877;29;20219;-73
2024/02/26 02:05:12;;;;;;;1.27;0.80;;;4.50;99.90;;;;;;2052807;28;20278;-74
2024/02/26 02:06:13;;;;;;;1.20;0.55;;;4.50;99.90;;;;;;2054084;28;20234;-75
2024/02/26 02:07:14;;;;;;;0.80;0.63;;;4.50;99.90;;;;;;2046266;28;20326;-75
2024/02/26 02:08:14;;;;;;;0.80;0.70;;;4.50;99.90;;;;;;2052790;28;20239;-73
2024/02/26 02:09:15;;;;;;;0.90;0.80;;;4.50;99.90;;;;;;2044099;28;20227;-73
2024/02/26 02:10:18;;;;;;;1.27;0.77;;;4.50;99.90;;;;;;2045151;28;20366;-73
2024/02/26 02:11:19;;;;;;;0.70;0.70;;;4.50;99.90;;;;;;2052546;28;20231;-74
2024/02/26 02:12:21;;;;;;;0.75;0.75;;;4.60;99.90;;;;;;2057051;28;20230;-74
2024/02/26 02:13:22;;;;;;;1.02;0.80;;;4.60;99.90;;;;;;2056633;28;20225;-74
2024/02/26 02:14:23;;;;;;;0.70;0.70;;;4.60;99.90;;;;;;2051978;28;20250;-73
2024/02/26 02:15:23;;;;;;;0.70;0.70;;;4.60;99.90;;;;;;2049158;28;20236;-74
2024/02/26 02:16:24;;;;;;;0.60;0.60;;;4.70;99.90;;;;;;2049541;28;20629;-73
2024/02/26 02:17:26;;;;;;;1.52;0.73;;;4.70;99.90;;;;;;2045321;28;20241;-74
2024/02/26 02:18:27;;;;;;;0.82;0.70;;;4.80;99.90;;;;;;2035387;29;20224;-73
2024/02/26 02:19:28;;;;;;;1.13;0.80;;;4.80;99.90;;;;;;2043786;28;20701;-73
2024/02/26 02:20:35;;;;;;;0.70;0.70;;;4.80;99.90;;;;;;2052906;28;20592;-73
2024/02/26 02:21:36;;;;;;;0.75;0.60;;;4.90;99.90;;;;;;2055385;28;20458;-74
2024/02/26 02:22:38;;;;;;;0.87;0.77;;;5.00;99.90;;;;;;2049610;28;20603;-73
2024/02/26 02:23:38;;;;;;;0.98;0.90;;;4.90;99.90;;;;;;2056425;28;20262;-73
2024/02/26 02:24:39;;;;;;;0.70;0.70;;;4.90;99.90;;;;;;2049125;28;20227;-73
2024/02/26 02:25:40;;;;;;;0.63;0.60;;;4.90;99.90;;;;;;2054318;28;20283;-73
2024/02/26 02:26:40;;;;;;;0.90;0.90;;;4.90;99.90;;;;;;2054180;28;20239;-73
2024/02/26 02:27:42;;;;;;;1.00;0.90;;;4.90;99.90;;;;;;2044097;28;20239;-75
2024/02/26 02:28:44;;;;;;;0.70;0.70;;;4.80;99.90;;;;;;2052151;28;20293;-73
2024/02/26 02:29:45;;;;;;;2.85;0.70;;;4.80;99.90;;;;;;2049813;28;20235;-74
2024/02/26 02:30:46;;;;;;;0.60;0.60;;;4.70;99.90;;;;;;2036791;29;20298;-73
2024/02/26 02:31:46;;;;;;;0.80;0.80;;;4.80;99.90;;;;;;2037294;28;20595;-73
2024/02/26 02:32:47;;;;;;;0.70;0.70;;;4.80;99.90;;;;;;2046377;28;20235;-74
2024/02/26 02:33:48;;;;;;;0.87;0.87;;;4.90;99.90;;;;;;2036638;29;20746;-73
2024/02/26 02:34:49;;;;;;;0.90;0.80;;;4.90;99.90;;;;;;2036640;29;20235;-74
2024/02/26 02:35:50;;;;;;;1.03;0.80;;;4.90;99.90;;;;;;2039295;28;20689;-75
2024/02/26 02:36:54;;;;;;;1.35;1.00;;;4.80;99.90;;;;;;2055246;28;20238;-73
2024/02/26 02:37:57;;;;;;;0.88;0.70;;;4.80;99.90;;;;;;2051219;28;20257;-74
2024/02/26 02:38:57;;;;;;;0.75;0.70;;;4.80;99.90;;;;;;2044268;28;20302;-74
2024/02/26 02:39:58;;;;;;;0.73;0.73;;;4.70;99.90;;;;;;2045099;28;20261;-73
2024/02/26 02:40:59;;;;;;;0.80;0.70;;;4.70;99.90;;;;;;2053049;28;20185;-73
2024/02/26 02:42:00;;;;;;;0.80;0.80;;;4.70;99.90;;;;;;2042476;28;20543;-73
2024/02/26 02:43:01;;;;;;;1.50;0.83;;;4.70;99.90;;;;;;2052429;28;20199;-74
2024/02/26 02:44:02;;;;;;;1.17;1.08;;;4.60;99.90;;;;;;2061649;28;20645;-73
2024/02/26 02:45:03;;;;;;;1.03;0.80;;;4.60;99.90;;;;;;2050768;28;20176;-73
2024/02/26 02:46:04;;;;;;;1.27;0.90;;;4.60;99.90;;;;;;2046325;28;20191;-73
2024/02/26 02:47:05;;;;;;;0.80;0.80;;;4.60;99.90;;;;;;2057287;28;20194;-74
2024/02/26 02:48:05;;;;;;;1.13;0.80;;;4.60;99.90;;;;;;2056889;28;20237;-74
2024/02/26 02:49:12;;;;;;;1.10;0.70;;;4.70;99.90;;;;;;2046806;28;20184;-74
2024/02/26 02:50:12;;;;;;;0.98;0.88;;;4.70;99.90;;;;;;2047672;28;20339;-74
2024/02/26 02:51:13;;;;;;;0.70;0.70;;;4.80;99.90;;;;;;2041812;29;20349;-73
2024/02/26 02:52:14;;;;;;;1.23;1.10;;;4.80;99.90;;;;;;2036797;28;20272;-74
2024/02/26 02:53:16;;;;;;;0.90;0.80;;;4.90;99.90;;;;;;2051635;28;20231;-73
2024/02/26 02:54:17;;;;;;;0.82;0.80;;;4.80;99.90;;;;;;2046133;28;20799;-74
2024/02/26 02:55:18;;;;;;;4.30;1.10;;;4.90;99.90;;;;;;2050430;28;20237;-74
2024/02/26 02:56:19;;;;;;;1.55;0.77;;;4.90;99.90;;;;;;2057551;28;20237;-74
2024/02/26 02:57:20;;;;;;;0.83;0.77;;;5.00;99.90;;;;;;2049366;28;20239;-73
2024/02/26 02:58:21;;;;;;;0.73;0.70;;;5.00;99.90;;;;;;2049251;28;20234;-74
2024/02/26 02:59:21;;;;;;;0.80;0.80;;;5.00;99.90;;;;;;2050962;28;20234;-74
2024/02/26 03:00:25;;;;;;;0.80;0.80;;;5.10;99.90;;;;;;2052858;28;20231;-73
2024/02/26 03:01:26;;;;;;;0.82;0.80;;;5.10;99.90;;;;;;2045384;28;20321;-73
2024/02/26 03:02:26;;;;;;;1.07;0.73;;;5.00;99.90;;;;;;2044105;28;20223;-73
2024/02/26 03:03:28;;;;;;;1.00;0.90;;;5.00;99.90;;;;;;2051682;28;20230;-73
2024/02/26 03:04:29;;;;;;;1.05;0.85;;;5.00;99.90;;;;;;2052271;28;20231;-74
2024/02/26 03:05:29;;;;;;;0.90;0.80;;;5.00;99.90;;;;;;2055002;28;20281;-74
2024/02/26 03:06:30;;;;;;;1.40;1.10;;;4.90;99.90;;;;;;2063323;28;20328;-75
2024/02/26 03:07:31;;;;;;;1.27;0.90;;;4.90;99.90;;;;;;2056081;28;20325;-74
2024/02/26 03:08:32;;;;;;;1.08;0.75;;;4.80;99.90;;;;;;2047184;28;20227;-75
2024/02/26 03:09:32;;;;;;;0.80;0.80;;;4.80;99.90;;;;;;2054129;28;20235;-73
2024/02/26 03:10:33;;;;;;;1.10;1.00;;;4.80;99.90;;;;;;2050146;28;20228;-74
2024/02/26 03:11:34;;;;;;;1.67;0.93;;;4.70;99.90;;;;;;2049156;28;20224;-74
2024/02/26 03:12:35;;;;;;;1.08;0.85;;;4.80;99.90;;;;;;2052676;28;20284;-74
2024/02/26 03:13:36;;;;;;;1.13;0.80;;;4.80;99.90;;;;;;2054597;28;20284;-74
2024/02/26 03:14:36;;;;;;;0.83;0.70;;;4.80;99.90;;;;;;2053134;28;20704;-73
2024/02/26 03:15:37;;;;;;;1.30;0.97;;;4.80;99.90;;;;;;2060636;28;20265;-75
2024/02/26 03:16:38;;;;;;;1.13;0.70;;;4.90;99.90;;;;;;2055053;28;20234;-74
2024/02/26 03:17:39;;;;;;;1.00;0.87;;;4.90;99.90;;;;;;2050943;28;20231;-74
2024/02/26 03:18:40;;;;;;;1.37;0.70;;;4.90;99.90;;;;;;2051175;28;20233;-75
2024/02/26 03:19:40;;;;;;;0.80;0.80;;;4.90;99.90;;;;;;2045667;28;20294;-74
2024/02/26 03:20:41;;;;;;;2.83;0.93;;;4.90;99.90;;;;;;2051771;28;20231;-75
2024/02/26 03:21:42;;;;;;;1.47;0.87;;;4.90;99.90;;;;;;2044328;28;20231;-74
2024/02/26 03:22:43;;;;;;;0.93;0.90;;;4.80;99.90;;;;;;2059895;28;20277;-74
2024/02/26 03:23:44;;;;;;;3.55;1.00;;;4.80;99.90;;;;;;2054156;28;20313;-75
2024/02/26 03:24:44;;;;;;;0.80;0.80;;;4.90;99.90;;;;;;2043231;28;20282;-74
2024/02/26 03:25:48;;;;;;;0.80;0.67;;;4.80;99.90;;;;;;2049771;28;20231;-74
2024/02/26 03:26:49;;;;;;;1.10;0.90;;;4.80;99.90;;;;;;2052628;28;20235;-73
2024/02/26 03:27:50;;;;;;;1.07;0.93;;;4.80;99.90;;;;;;2052752;28;20242;-73
2024/02/26 03:28:50;;;;;;;1.00;0.90;;;4.70;99.90;;;;;;2038784;28;20274;-74
2024/02/26 03:29:52;;;;;;;0.60;0.60;;;4.80;99.90;;;;;;2048480;28;20301;-73
2024/02/26 03:30:53;;;;;;;1.30;0.93;;;4.80;99.90;;;;;;2050180;28;20695;-74
2024/02/26 03:31:54;;;;;;;1.37;1.07;;;4.80;99.90;;;;;;2066690;28;20240;-73
2024/02/26 03:32:54;;;;;;;1.37;0.80;;;4.80;99.90;;;;;;2062793;28;20678;-74
2024/02/26 03:33:55;;;;;;;1.73;0.87;;;4.80;99.90;;;;;;2048306;28;20195;-74
2024/02/26 03:34:55;;;;;;;1.37;0.70;;;4.70;99.90;;;;;;2042965;28;20765;-73
2024/02/26 03:35:56;;;;;;;0.57;0.57;;;4.50;99.90;;;;;;2052297;28;20664;-72
2024/02/26 03:36:57;;;;;;;0.80;0.73;;;4.50;99.90;;;;;;2051844;28;20218;-72
2024/02/26 03:37:58;;;;;;;1.73;0.97;;;4.50;99.90;;;;;;2045615;28;20235;-72
2024/02/26 03:38:59;;;;;;;1.03;0.90;;;4.50;99.90;;;;;;2060654;28;20734;-73
2024/02/26 03:40:01;;;;;;;1.03;0.80;;;4.50;99.90;;;;;;2058685;28;20183;-74
2024/02/26 03:41:01;;;;;;;0.80;0.80;;;4.50;99.90;;;;;;2056305;28;20931;-73
2024/02/26 03:42:02;;;;;;;0.97;0.87;;;4.50;99.90;;;;;;2054036;28;20191;-73
2024/02/26 03:43:04;;;;;;;1.10;0.85;;;4.50;99.90;;;;;;2048446;28;20190;-73
2024/02/26 03:44:05;;;;;;;1.45;1.00;;;4.50;99.90;;;;;;2042655;28;20208;-73
2024/02/26 03:45:06;;;;;;;0.77;0.77;;;4.50;99.90;;;;;;2053556;28;20317;-73
2024/02/26 03:46:13;;;;;;;1.85;0.80;;;4.40;99.90;;;;;;2039212;28;20752;-72
2024/02/26 03:47:14;;;;;;;1.00;0.90;;;4.40;99.90;;;;;;2047686;28;20939;-74
2024/02/26 03:48:14;;;;;;;1.00;0.90;;;4.30;99.90;;;;;;2049906;28;20365;-74
2024/02/26 03:49:24;;;;;;;0.87;0.80;;;4.30;99.90;;;;;;2043446;28;20741;-73
2024/02/26 03:50:25;;;;;;;0.98;0.85;;;4.30;99.90;;;;;;2047596;28;20226;-73
2024/02/26 03:51:30;;;;;;;0.97;0.83;;;4.30;99.90;;;;;;2055172;28;20233;-73
2024/02/26 03:52:31;;;;;;;1.42;1.00;;;4.30;99.90;;;;;;2046724;28;20295;-73
2024/02/26 03:53:32;;;;;;;1.03;0.93;;;4.40;99.90;;;;;;2051054;28;20219;-74
2024/02/26 03:54:32;;;;;;;1.10;0.80;;;4.40;99.90;;;;;;2057936;28;20233;-73
2024/02/26 03:55:33;;;;;;;1.43;1.17;;;4.50;99.90;;;;;;2048304;28;20223;-74
2024/02/26 03:56:34;;;;;;;0.70;0.70;;;4.50;99.90;;;;;;2053205;28;20748;-73
2024/02/26 03:57:36;;;;;;;1.00;0.90;;;4.50;99.90;;;;;;2048519;28;20689;-73
2024/02/26 03:58:36;;;;;;;0.90;0.90;;;4.50;99.90;;;;;;2048169;28;20266;-74
2024/02/26 03:59:37;;;;;;;1.33;1.00;;;4.50;99.90;;;;;;2052007;28;20225;-73
2024/02/26 04:00:38;;;;;;;1.30;0.90;;;4.40;99.90;;;;;;2054486;28;20219;-74
2024/02/26 04:01:38;;;;;;;1.10;1.00;;;4.40;99.90;;;;;;2059888;28;20320;-73
2024/02/26 04:02:39;;;;;;;0.80;0.80;;;4.40;99.90;;;;;;2052424;28;20786;-72
2024/02/26 04:03:40;;;;;;;0.90;0.90;;;4.50;99.90;;;;;;2048907;28;20222;-73
2024/02/26 04:04:41;;;;;;;2.17;0.97;;;4.50;99.90;;;;;;2049563;28;20231;-72
2024/02/26 04:05:41;;;;;;;0.70;0.60;;;4.50;99.90;;;;;;2048907;28;20235;-73
2024/02/26 04:06:48;;;;;;;0.80;0.80;;;4.50;99.90;;;;;;2049849;28;20258;-74
2024/02/26 04:07:49;;;;;;;0.80;0.70;;;4.50;99.90;;;;;;2048540;28;20235;-74
2024/02/26 04:08:49;;;;;;;1.00;0.90;;;4.40;99.90;;;;;;2051712;28;20234;-74
2024/02/26 04:09:50;;;;;;;0.80;0.80;;;4.40;99.90;;;;;;2059869;28;20242;-74
2024/02/26 04:10:51;;;;;;;1.07;0.97;;;4.40;99.90;;;;;;2051925;28;20308;-73
2024/02/26 04:11:51;;;;;;;1.03;0.80;;;4.40;99.90;;;;;;2047721;28;20211;-71
2024/02/26 04:12:52;;;;;;;1.17;1.07;;;4.50;99.90;;;;;;2055777;28;20191;-71
2024/02/26 04:13:53;;;;;;;0.90;0.80;;;4.50;99.90;;;;;;2045931;28;20564;-72
2024/02/26 04:14:53;;;;;;;2.60;1.20;;;4.60;99.90;;;;;;2058951;28;20186;-71
2024/02/26 04:15:54;;;;;;;1.83;1.33;;;4.60;99.90;;;;;;2051072;28;20277;-72
2024/02/26 04:16:55;;;;;;;3.47;2.00;;;4.60;99.90;;;;;;2051283;28;20379;-73
2024/02/26 04:17:56;;;;;;;6.10;3.10;;;4.60;99.90;;;;;;2052687;28;20210;-72
2024/02/26 04:18:56;;;;;;;4.47;2.53;;;4.60;99.90;;;;;;2058373;28;20183;-72
2024/02/26 04:19:57;;;;;;;2.57;1.97;;;4.50;99.90;;;;;;2054894;28;20454;-73
2024/02/26 04:20:58;;;;;;;2.37;1.70;;;4.50;99.90;;;;;;2048479;28;20687;-72
2024/02/26 04:21:59;;;;;;;2.27;1.43;;;4.50;99.90;;;;;;2049453;28;20183;-72
2024/02/26 04:23:00;;;;;;;0.60;0.60;;;4.50;99.90;;;;;;2032078;28;20204;-73
2024/02/26 04:24:01;;;;;;;0.70;0.60;;;4.50;99.90;;;;;;2050591;28;20573;-73
2024/02/26 04:25:02;;;;;;;0.55;0.55;;;4.50;99.90;;;;;;2044959;28;20650;-73
2024/02/26 04:26:04;;;;;;;0.93;0.63;;;4.50;99.90;;;;;;2050854;28;20203;-73
2024/02/26 04:27:05;;;;;;;0.73;0.50;;;4.60;99.90;;;;;;2044668;28;20684;-73
2024/02/26 04:28:06;;;;;;;0.80;0.50;;;4.60;99.90;;;;;;2044573;28;20180;-73
2024/02/26 04:29:07;;;;;;;0.60;0.60;;;4.60;99.90;;;;;;2051301;28;20650;-73
2024/02/26 04:30:08;;;;;;;1.10;0.70;;;4.60;99.90;;;;;;2057520;28;20190;-73
2024/02/26 04:31:09;;;;;;;0.70;0.50;;;4.60;99.90;;;;;;2058095;28;20652;-73
2024/02/26 04:32:09;;;;;;;0.63;0.63;;;4.70;99.90;;;;;;2041921;29;20177;-74
2024/02/26 04:33:10;;;;;;;1.23;0.90;;;4.70;99.90;;;;;;2035628;28;21004;-73
2024/02/26 04:34:10;;;;;;;0.50;0.40;;;4.70;99.90;;;;;;2040731;28;20233;-73
2024/02/26 04:35:11;;;;;;;0.60;0.60;;;4.70;99.90;;;;;;2048191;28;20395;-74
2024/02/26 04:36:15;;;;;;;0.87;0.70;;;4.80;99.90;;;;;;2062173;28;20251;-73
2024/02/26 04:37:16;;;;;;;0.60;0.60;;;4.80;99.90;;;;;;2061072;28;20230;-74
2024/02/26 04:38:16;;;;;;;0.77;0.77;;;4.80;99.90;;;;;;2053561;28;20231;-73
2024/02/26 04:39:18;;;;;;;0.57;0.57;;;4.80;99.90;;;;;;2053287;28;20227;-73
2024/02/26 04:40:18;;;;;;;0.63;0.60;;;4.80;99.90;;;;;;2044110;28;20227;-73
2024/02/26 04:41:19;;;;;;;0.70;0.70;;;4.90;99.90;;;;;;2054686;28;20366;-73
2024/02/26 04:42:20;;;;;;;0.50;0.50;;;4.90;99.90;;;;;;2056131;28;20231;-73
2024/02/26 04:43:20;;;;;;;0.70;0.70;;;4.90;99.90;;;;;;2045798;28;20235;-73
2024/02/26 04:44:21;;;;;;;0.50;0.50;;;4.90;99.90;;;;;;2052510;28;20230;-73
2024/02/26 04:45:22;;;;;;;0.60;0.60;;;5.00;99.90;;;;;;2056541;28;20226;-73
2024/02/26 04:46:22;;;;;;;0.60;0.60;;;5.00;99.90;;;;;;2055958;28;20233;-73
2024/02/26 04:47:23;;;;;;;0.90;0.60;;;5.10;99.90;;;;;;2058579;28;20265;-73
2024/02/26 04:48:24;;;;;;;0.60;0.60;;;5.20;99.90;;;;;;2043327;28;20432;-73
2024/02/26 04:49:24;;;;;;;1.83;0.83;;;5.20;99.90;;;;;;2045333;28;20242;-73
2024/02/26 04:50:25;;;;;;;1.47;0.90;;;5.20;99.90;;;;;;2043803;28;20326;-73
2024/02/26 04:51:26;;;;;;;0.60;0.60;;;5.10;99.90;;;;;;2042581;29;20330;-73
2024/02/26 04:52:26;;;;;;;1.47;1.00;;;5.10;99.90;;;;;;2046233;28;20235;-73
2024/02/26 04:53:27;;;;;;;2.20;1.23;;;5.10;99.90;;;;;;2057246;28;20235;-72
2024/02/26 04:54:28;;;;;;;4.63;1.40;;;5.10;99.90;;;;;;2057051;28;20293;-73
2024/02/26 04:55:29;;;;;;;1.53;1.10;;;5.10;99.90;;;;;;2053951;28;20238;-73
2024/02/26 04:56:30;;;;;;;2.60;1.23;;;5.00;99.90;;;;;;2045888;28;20262;-72
2024/02/26 04:57:30;;;;;;;1.35;1.00;;;5.10;99.90;;;;;;2051476;28;20753;-73
2024/02/26 04:58:31;;;;;;;1.27;1.00;;;5.10;99.90;;;;;;2046208;28;20346;-73
2024/02/26 04:59:32;;;;;;;2.93;1.93;;;5.10;99.90;;;;;;2045941;28;20258;-73
2024/02/26 05:00:32;;;;;;;2.97;2.30;;;5.00;99.90;;;;;;2047715;28;20322;-74
2024/02/26 05:01:33;;;;;;;3.03;2.40;;;5.10;99.90;;;;;;2057477;28;20237;-73
2024/02/26 05:02:37;;;;;;;1.80;1.43;;;5.00;99.90;;;;;;2056926;28;20273;-74
2024/02/26 05:03:38;;;;;;;1.25;1.00;;;5.00;99.90;;;;;;2046898;28;20232;-73
2024/02/26 05:04:39;;;;;;;0.70;0.70;;;4.90;99.90;;;;;;2037009;29;20603;-73
2024/02/26 05:05:43;;;;;;;1.63;1.13;;;4.90;99.90;;;;;;2056363;28;20314;-73
2024/02/26 05:06:44;;;;;;;1.70;1.20;;;4.80;99.90;;;;;;2052720;28;20231;-73
2024/02/26 05:07:45;;;;;;;5.63;3.77;;;4.90;99.90;;;;;;2052279;28;20234;-73
2024/02/26 05:08:45;;;;;;;6.33;2.40;;;5.00;99.90;;;;;;2045345;28;20240;-74
2024/02/26 05:09:49;;;;;;;1.10;0.93;;;4.90;99.90;;;;;;2049324;28;20310;-74
2024/02/26 05:10:50;;;;;;;5.07;1.02;;;5.00;99.90;;;;;;2045813;28;20263;-74
2024/02/26 05:11:50;;;;;;;1.10;0.77;;;4.90;99.90;;;;;;2052918;28;20239;-74
2024/02/26 05:12:51;;;;;;;0.60;0.60;;;5.00;99.90;;;;;;2046900;28;20227;-72
2024/02/26 05:13:52;;;;;;;0.67;0.63;;;5.00;99.90;;;;;;2034222;29;20192;-73
2024/02/26 05:14:52;;;;;;;0.50;0.50;;;5.10;99.90;;;;;;2041554;28;20223;-73
2024/02/26 05:15:53;;;;;;;0.43;0.43;;;5.00;99.90;;;;;;2049357;28;20251;-71
2024/02/26 05:16:54;;;;;;;0.50;0.50;;;5.10;99.90;;;;;;2051769;28;20235;-72
2024/02/26 05:17:54;;;;;;;0.50;0.50;;;5.10;99.90;;;;;;2037370;28;20608;-73
2024/02/26 05:18:55;;;;;;;0.63;0.60;;;5.10;99.90;;;;;;2056168;28;20649;-72
2024/02/26 05:19:56;;;;;;;0.40;0.40;;;5.10;99.90;;;;;;2055556;28;20683;-72
2024/02/26 05:20:56;;;;;;;0.80;0.60;;;5.00;99.90;;;;;;2057246;28;20179;-72
2024/02/26 05:21:57;;;;;;;4.63;1.23;;;5.10;99.90;;;;;;2056714;28;20225;-73